sensor_id;sensor_type;location;lat;lon;timestamp;temperature;humidity
41469;DHT22;27206;47.032;15.484;2023-02-15T00:01:51;1.40;1.00
41469;DHT22;27206;47.032;15.484;2023-02-15T00:04:20;1.60;1.00
41469;DHT22;27206;47.032;15.484;2023-02-15T00:06:46;1.60;1.00
41469;DHT22;27206;47.032;15.484;2023-02-15T00:09:12;1.70;1.00
41469;DHT22;27206;47.032;15.484;2023-02-15T00:11:38;1.80;1.00
41469;DHT22;27206;47.032;15.484;2023-02-15T00:14:24;1.70;1.00
41469;DHT22;27206;47.032;15.484;2023-02-15T00:16:51;1.70;1.00
41469;DHT22;27206;47.032;15.484;2023-02-15T00:19:18;1.80;1.00
41469;DHT22;27206;47.032;15.484;2023-02-15T00:21:45;1.80;1.00
41469;DHT22;27206;47.032;15.484;2023-02-15T00:24:13;1.90;1.00
41469;DHT22;27206;47.032;15.484;2023-02-15T00:26:39;1.90;1.00
41469;DHT22;27206;47.032;15.484;2023-02-15T00:29:05;1.90;1.00
41469;DHT22;27206;47.032;15.484;2023-02-15T00:31:32;1.90;1.00
41469;DHT22;27206;47.032;15.484;2023-02-15T00:34:15;1.90;1.00
41469;DHT22;27206;47.032;15.484;2023-02-15T00:36:44;1.90;1.00
41469;DHT22;27206;47.032;15.484;2023-02-15T00:39:11;1.80;1.00
41469;DHT22;27206;47.032;15.484;2023-02-15T00:41:37;1.90;1.00
41469;DHT22;27206;47.032;15.484;2023-02-15T00:44:03;1.90;1.00
41469;DHT22;27206;47.032;15.484;2023-02-15T00:46:29;1.90;1.00
41469;DHT22;27206;47.032;15.484;2023-02-15T00:48:55;1.90;1.00
41469;DHT22;27206;47.032;15.484;2023-02-15T00:51:21;1.90;1.00
41469;DHT22;27206;47.032;15.484;2023-02-15T00:53:47;1.90;1.00
41469;DHT22;27206;47.032;15.484;2023-02-15T00:56:13;1.90;1.00
41469;DHT22;27206;47.032;15.484;2023-02-15T00:58:39;2.00;1.00
41469;DHT22;27206;47.032;15.484;2023-02-15T01:01:10;2.00;1.00
41469;DHT22;27206;47.032;15.484;2023-02-15T01:03:36;2.10;1.00
41469;DHT22;27206;47.032;15.484;2023-02-15T01:06:02;2.10;1.00
41469;DHT22;27206;47.032;15.484;2023-02-15T01:08:28;2.10;1.00
41469;DHT22;27206;47.032;15.484;2023-02-15T01:10:54;2.10;1.00
41469;DHT22;27206;47.032;15.484;2023-02-15T01:13:20;2.10;1.00
41469;DHT22;27206;47.032;15.484;2023-02-15T01:15:46;2.20;1.00
41469;DHT22;27206;47.032;15.484;2023-02-15T01:18:17;2.10;1.00
41469;DHT22;27206;47.032;15.484;2023-02-15T01:20:42;2.20;1.00
41469;DHT22;27206;47.032;15.484;2023-02-15T01:23:08;2.20;1.00
41469;DHT22;27206;47.032;15.484;2023-02-15T01:25:35;2.20;1.00
41469;DHT22;27206;47.032;15.484;2023-02-15T01:28:01;2.20;1.00
41469;DHT22;27206;47.032;15.484;2023-02-15T01:30:27;2.20;1.00
41469;DHT22;27206;47.032;15.484;2023-02-15T01:32:52;2.30;1.00
41469;DHT22;27206;47.032;15.484;2023-02-15T01:35:18;2.20;1.00
41469;DHT22;27206;47.032;15.484;2023-02-15T01:37:44;2.30;1.00
41469;DHT22;27206;47.032;15.484;2023-02-15T01:40:15;2.30;1.00
41469;DHT22;27206;47.032;15.484;2023-02-15T01:42:41;2.20;1.00
41469;DHT22;27206;47.032;15.484;2023-02-15T01:45:29;2.20;1.00
41469;DHT22;27206;47.032;15.484;2023-02-15T01:50:40;2.30;1.00
41469;DHT22;27206;47.032;15.484;2023-02-15T01:55:45;2.40;1.00
41469;DHT22;27206;47.032;15.484;2023-02-15T01:58:14;2.40;1.00
41469;DHT22;27206;47.032;15.484;2023-02-15T02:00:40;2.30;1.00
41469;DHT22;27206;47.032;15.484;2023-02-15T02:03:05;2.30;1.00
41469;DHT22;27206;47.032;15.484;2023-02-15T02:05:32;2.20;1.00
41469;DHT22;27206;47.032;15.484;2023-02-15T02:08:00;2.30;1.00
41469;DHT22;27206;47.032;15.484;2023-02-15T02:10:27;2.20;1.00
41469;DHT22;27206;47.032;15.484;2023-02-15T02:12:55;2.30;1.00
41469;DHT22;27206;47.032;15.484;2023-02-15T02:16:10;2.40;1.00
41469;DHT22;27206;47.032;15.484;2023-02-15T02:18:30;2.30;1.00
41469;DHT22;27206;47.032;15.484;2023-02-15T02:38:32;2.30;1.00
41469;DHT22;27206;47.032;15.484;2023-02-15T02:46:42;2.30;1.00
41469;DHT22;27206;47.032;15.484;2023-02-15T02:49:09;2.30;1.00
41469;DHT22;27206;47.032;15.484;2023-02-15T02:51:35;2.40;1.00
41469;DHT22;27206;47.032;15.484;2023-02-15T02:54:04;2.50;1.00
41469;DHT22;27206;47.032;15.484;2023-02-15T02:56:37;2.50;1.00
41469;DHT22;27206;47.032;15.484;2023-02-15T02:59:11;2.50;1.00
41469;DHT22;27206;47.032;15.484;2023-02-15T03:01:40;2.50;1.00
41469;DHT22;27206;47.032;15.484;2023-02-15T03:04:13;2.50;1.00
41469;DHT22;27206;47.032;15.484;2023-02-15T03:06:50;2.60;1.00
41469;DHT22;27206;47.032;15.484;2023-02-15T03:09:39;2.60;1.00
41469;DHT22;27206;47.032;15.484;2023-02-15T03:12:11;2.60;1.00
41469;DHT22;27206;47.032;15.484;2023-02-15T03:14:40;2.60;1.00
41469;DHT22;27206;47.032;15.484;2023-02-15T03:17:07;2.50;1.00
41469;DHT22;27206;47.032;15.484;2023-02-15T03:19:36;2.50;1.00
41469;DHT22;27206;47.032;15.484;2023-02-15T03:22:08;2.60;1.00
41469;DHT22;27206;47.032;15.484;2023-02-15T03:24:44;2.60;1.00
41469;DHT22;27206;47.032;15.484;2023-02-15T03:27:17;2.60;1.00
41469;DHT22;27206;47.032;15.484;2023-02-15T03:29:50;2.60;1.00
41469;DHT22;27206;47.032;15.484;2023-02-15T03:32:18;2.60;1.00
41469;DHT22;27206;47.032;15.484;2023-02-15T03:34:44;2.70;1.00
41469;DHT22;27206;47.032;15.484;2023-02-15T03:37:15;2.60;1.00
41469;DHT22;27206;47.032;15.484;2023-02-15T03:39:54;2.60;1.00
41469;DHT22;27206;47.032;15.484;2023-02-15T03:42:32;2.60;1.00
41469;DHT22;27206;47.032;15.484;2023-02-15T03:45:08;2.60;1.00
41469;DHT22;27206;47.032;15.484;2023-02-15T03:47:39;2.40;1.00
41469;DHT22;27206;47.032;15.484;2023-02-15T03:50:22;2.60;1.00
41469;DHT22;27206;47.032;15.484;2023-02-15T03:53:11;2.60;1.00
41469;DHT22;27206;47.032;15.484;2023-02-15T03:55:39;2.70;1.00
41469;DHT22;27206;47.032;15.484;2023-02-15T03:58:04;2.70;1.00
41469;DHT22;27206;47.032;15.484;2023-02-15T04:00:57;2.60;1.00
41469;DHT22;27206;47.032;15.484;2023-02-15T04:03:46;2.60;1.00
41469;DHT22;27206;47.032;15.484;2023-02-15T04:06:15;2.60;1.00
41469;DHT22;27206;47.032;15.484;2023-02-15T04:08:40;2.70;1.00
41469;DHT22;27206;47.032;15.484;2023-02-15T04:11:25;2.80;1.00
41469;DHT22;27206;47.032;15.484;2023-02-15T04:13:50;2.70;1.00
41469;DHT22;27206;47.032;15.484;2023-02-15T04:16:22;2.60;1.00
41469;DHT22;27206;47.032;15.484;2023-02-15T04:18:48;2.60;1.00
41469;DHT22;27206;47.032;15.484;2023-02-15T04:21:33;2.60;1.00
41469;DHT22;27206;47.032;15.484;2023-02-15T04:24:18;2.50;1.00
41469;DHT22;27206;47.032;15.484;2023-02-15T04:27:03;2.60;1.00
41469;DHT22;27206;47.032;15.484;2023-02-15T04:29:29;2.40;1.00
41469;DHT22;27206;47.032;15.484;2023-02-15T04:31:58;2.30;1.00
41469;DHT22;27206;47.032;15.484;2023-02-15T04:34:24;2.20;1.00
41469;DHT22;27206;47.032;15.484;2023-02-15T04:36:50;2.20;1.00
41469;DHT22;27206;47.032;15.484;2023-02-15T04:39:17;2.20;1.00
41469;DHT22;27206;47.032;15.484;2023-02-15T04:41:44;2.10;1.00
41469;DHT22;27206;47.032;15.484;2023-02-15T04:44:10;2.10;1.00
41469;DHT22;27206;47.032;15.484;2023-02-15T04:46:36;2.10;1.00
41469;DHT22;27206;47.032;15.484;2023-02-15T04:49:02;2.10;1.00
41469;DHT22;27206;47.032;15.484;2023-02-15T04:51:28;2.00;1.00
41469;DHT22;27206;47.032;15.484;2023-02-15T04:53:54;2.00;1.00
41469;DHT22;27206;47.032;15.484;2023-02-15T04:56:20;2.00;1.00
41469;DHT22;27206;47.032;15.484;2023-02-15T04:58:46;2.00;1.00
41469;DHT22;27206;47.032;15.484;2023-02-15T05:01:12;2.00;1.00
41469;DHT22;27206;47.032;15.484;2023-02-15T05:03:38;2.00;1.00
41469;DHT22;27206;47.032;15.484;2023-02-15T05:06:04;2.10;1.00
41469;DHT22;27206;47.032;15.484;2023-02-15T05:08:30;2.10;1.00
41469;DHT22;27206;47.032;15.484;2023-02-15T05:10:57;2.20;1.00
41469;DHT22;27206;47.032;15.484;2023-02-15T05:13:23;2.20;1.00
41469;DHT22;27206;47.032;15.484;2023-02-15T05:15:50;2.10;1.00
41469;DHT22;27206;47.032;15.484;2023-02-15T05:18:18;2.20;1.00
41469;DHT22;27206;47.032;15.484;2023-02-15T05:20:44;2.10;1.00
41469;DHT22;27206;47.032;15.484;2023-02-15T05:23:09;2.10;1.00
41469;DHT22;27206;47.032;15.484;2023-02-15T05:25:35;2.00;1.00
41469;DHT22;27206;47.032;15.484;2023-02-15T05:28:20;2.10;1.00
41469;DHT22;27206;47.032;15.484;2023-02-15T05:30:51;2.10;1.00
41469;DHT22;27206;47.032;15.484;2023-02-15T05:33:23;2.20;1.00
41469;DHT22;27206;47.032;15.484;2023-02-15T05:35:49;2.20;1.00
41469;DHT22;27206;47.032;15.484;2023-02-15T05:38:14;2.20;1.00
41469;DHT22;27206;47.032;15.484;2023-02-15T05:40:40;2.20;1.00
41469;DHT22;27206;47.032;15.484;2023-02-15T05:43:05;2.20;1.00
41469;DHT22;27206;47.032;15.484;2023-02-15T05:45:31;2.10;1.00
41469;DHT22;27206;47.032;15.484;2023-02-15T05:47:57;2.20;1.00
41469;DHT22;27206;47.032;15.484;2023-02-15T05:50:24;2.10;1.00
41469;DHT22;27206;47.032;15.484;2023-02-15T05:52:49;2.20;1.00
41469;DHT22;27206;47.032;15.484;2023-02-15T05:55:15;2.20;1.00
41469;DHT22;27206;47.032;15.484;2023-02-15T05:57:41;2.20;1.00
41469;DHT22;27206;47.032;15.484;2023-02-15T06:00:07;2.20;1.00
41469;DHT22;27206;47.032;15.484;2023-02-15T06:02:34;2.20;1.00
41469;DHT22;27206;47.032;15.484;2023-02-15T06:05:00;2.20;1.00
41469;DHT22;27206;47.032;15.484;2023-02-15T06:07:26;2.20;1.00
41469;DHT22;27206;47.032;15.484;2023-02-15T06:09:51;2.20;1.00
41469;DHT22;27206;47.032;15.484;2023-02-15T06:12:17;2.20;1.00
41469;DHT22;27206;47.032;15.484;2023-02-15T06:14:42;2.30;1.00
41469;DHT22;27206;47.032;15.484;2023-02-15T06:17:08;2.30;1.00
41469;DHT22;27206;47.032;15.484;2023-02-15T06:19:34;2.30;1.00
41469;DHT22;27206;47.032;15.484;2023-02-15T06:21:59;2.30;1.00
41469;DHT22;27206;47.032;15.484;2023-02-15T06:24:25;2.30;1.00
41469;DHT22;27206;47.032;15.484;2023-02-15T06:26:51;2.40;1.00
41469;DHT22;27206;47.032;15.484;2023-02-15T06:29:16;2.30;1.00
41469;DHT22;27206;47.032;15.484;2023-02-15T06:31:42;2.40;1.00
41469;DHT22;27206;47.032;15.484;2023-02-15T06:34:08;2.40;1.00
41469;DHT22;27206;47.032;15.484;2023-02-15T06:36:33;2.40;1.00
41469;DHT22;27206;47.032;15.484;2023-02-15T06:38:59;2.40;1.00
41469;DHT22;27206;47.032;15.484;2023-02-15T06:41:25;2.40;1.00
41469;DHT22;27206;47.032;15.484;2023-02-15T06:43:50;2.40;1.00
41469;DHT22;27206;47.032;15.484;2023-02-15T06:46:16;2.40;1.00
41469;DHT22;27206;47.032;15.484;2023-02-15T06:48:42;2.40;1.00
41469;DHT22;27206;47.032;15.484;2023-02-15T06:51:07;2.50;1.00
41469;DHT22;27206;47.032;15.484;2023-02-15T06:53:33;2.60;1.00
41469;DHT22;27206;47.032;15.484;2023-02-15T06:56:03;2.60;1.00
41469;DHT22;27206;47.032;15.484;2023-02-15T06:58:32;2.60;1.00
41469;DHT22;27206;47.032;15.484;2023-02-15T07:00:58;2.60;1.00
41469;DHT22;27206;47.032;15.484;2023-02-15T07:03:23;2.60;1.00
41469;DHT22;27206;47.032;15.484;2023-02-15T07:05:56;2.60;1.00
41469;DHT22;27206;47.032;15.484;2023-02-15T07:08:23;2.50;1.00
41469;DHT22;27206;47.032;15.484;2023-02-15T07:10:50;2.40;1.00
41469;DHT22;27206;47.032;15.484;2023-02-15T07:13:16;2.50;1.00
41469;DHT22;27206;47.032;15.484;2023-02-15T07:15:42;2.60;1.00
41469;DHT22;27206;47.032;15.484;2023-02-15T07:18:08;2.60;1.00
41469;DHT22;27206;47.032;15.484;2023-02-15T07:20:34;2.60;1.00
41469;DHT22;27206;47.032;15.484;2023-02-15T07:23:01;2.60;1.00
41469;DHT22;27206;47.032;15.484;2023-02-15T07:25:27;2.60;1.00
41469;DHT22;27206;47.032;15.484;2023-02-15T07:28:00;2.50;1.00
41469;DHT22;27206;47.032;15.484;2023-02-15T07:30:27;2.60;1.00
41469;DHT22;27206;47.032;15.484;2023-02-15T07:32:57;2.60;1.00
41469;DHT22;27206;47.032;15.484;2023-02-15T07:35:53;2.60;1.00
41469;DHT22;27206;47.032;15.484;2023-02-15T07:38:19;2.60;1.00
41469;DHT22;27206;47.032;15.484;2023-02-15T07:40:46;2.70;1.00
41469;DHT22;27206;47.032;15.484;2023-02-15T07:43:11;2.70;1.00
41469;DHT22;27206;47.032;15.484;2023-02-15T07:45:37;2.70;1.00
41469;DHT22;27206;47.032;15.484;2023-02-15T07:48:04;2.80;1.00
41469;DHT22;27206;47.032;15.484;2023-02-15T07:50:32;2.80;1.00
41469;DHT22;27206;47.032;15.484;2023-02-15T07:52:58;2.70;1.00
41469;DHT22;27206;47.032;15.484;2023-02-15T07:55:24;2.70;1.00
41469;DHT22;27206;47.032;15.484;2023-02-15T07:57:51;2.90;1.00
41469;DHT22;27206;47.032;15.484;2023-02-15T08:00:19;2.60;1.00
41469;DHT22;27206;47.032;15.484;2023-02-15T08:02:51;2.80;1.00
41469;DHT22;27206;47.032;15.484;2023-02-15T08:05:37;2.90;1.00
41469;DHT22;27206;47.032;15.484;2023-02-15T08:08:03;3.00;1.00
41469;DHT22;27206;47.032;15.484;2023-02-15T08:10:29;2.90;1.00
41469;DHT22;27206;47.032;15.484;2023-02-15T08:13:14;3.00;1.00
41469;DHT22;27206;47.032;15.484;2023-02-15T08:15:39;3.00;99.90
41469;DHT22;27206;47.032;15.484;2023-02-15T08:18:05;3.00;99.90
41469;DHT22;27206;47.032;15.484;2023-02-15T08:20:30;2.90;99.90
41469;DHT22;27206;47.032;15.484;2023-02-15T08:22:56;2.80;99.90
41469;DHT22;27206;47.032;15.484;2023-02-15T08:25:22;3.00;99.90
41469;DHT22;27206;47.032;15.484;2023-02-15T08:27:49;3.00;99.90
41469;DHT22;27206;47.032;15.484;2023-02-15T08:30:15;3.10;99.90
41469;DHT22;27206;47.032;15.484;2023-02-15T08:32:41;3.20;99.90
41469;DHT22;27206;47.032;15.484;2023-02-15T08:35:07;3.10;99.90
41469;DHT22;27206;47.032;15.484;2023-02-15T08:37:33;3.20;99.90
41469;DHT22;27206;47.032;15.484;2023-02-15T08:39:58;3.20;99.90
41469;DHT22;27206;47.032;15.484;2023-02-15T08:42:24;3.20;99.90
41469;DHT22;27206;47.032;15.484;2023-02-15T08:44:49;3.20;99.90
41469;DHT22;27206;47.032;15.484;2023-02-15T08:47:16;3.20;99.90
41469;DHT22;27206;47.032;15.484;2023-02-15T08:49:42;3.30;99.90
41469;DHT22;27206;47.032;15.484;2023-02-15T08:52:08;3.40;99.90
41469;DHT22;27206;47.032;15.484;2023-02-15T08:54:33;3.40;99.90
41469;DHT22;27206;47.032;15.484;2023-02-15T08:56:59;3.50;99.90
41469;DHT22;27206;47.032;15.484;2023-02-15T08:59:25;3.50;99.90
41469;DHT22;27206;47.032;15.484;2023-02-15T09:01:53;3.50;99.90
41469;DHT22;27206;47.032;15.484;2023-02-15T09:04:19;3.60;99.90
41469;DHT22;27206;47.032;15.484;2023-02-15T09:06:47;3.20;99.90
41469;DHT22;27206;47.032;15.484;2023-02-15T09:09:13;3.30;99.90
41469;DHT22;27206;47.032;15.484;2023-02-15T09:11:41;3.40;99.90
41469;DHT22;27206;47.032;15.484;2023-02-15T09:14:09;3.40;99.90
41469;DHT22;27206;47.032;15.484;2023-02-15T09:16:36;3.40;99.90
41469;DHT22;27206;47.032;15.484;2023-02-15T09:19:03;3.40;99.90
41469;DHT22;27206;47.032;15.484;2023-02-15T09:21:33;3.50;99.90
41469;DHT22;27206;47.032;15.484;2023-02-15T09:24:04;3.40;99.90
41469;DHT22;27206;47.032;15.484;2023-02-15T09:26:31;3.40;99.90
41469;DHT22;27206;47.032;15.484;2023-02-15T09:28:59;3.50;99.90
41469;DHT22;27206;47.032;15.484;2023-02-15T09:31:29;3.60;99.90
41469;DHT22;27206;47.032;15.484;2023-02-15T09:33:55;3.60;99.90
41469;DHT22;27206;47.032;15.484;2023-02-15T09:36:30;3.60;99.90
41469;DHT22;27206;47.032;15.484;2023-02-15T09:47:00;3.60;99.90
41469;DHT22;27206;47.032;15.484;2023-02-15T09:52:32;3.60;99.90
41469;DHT22;27206;47.032;15.484;2023-02-15T10:06:05;3.80;99.90
41469;DHT22;27206;47.032;15.484;2023-02-15T10:11:54;3.80;99.90
41469;DHT22;27206;47.032;15.484;2023-02-15T10:14:43;3.70;99.90
41469;DHT22;27206;47.032;15.484;2023-02-15T10:18:13;3.90;99.90
41469;DHT22;27206;47.032;15.484;2023-02-15T10:31:31;3.80;99.90
41469;DHT22;27206;47.032;15.484;2023-02-15T10:34:16;3.80;99.90
41469;DHT22;27206;47.032;15.484;2023-02-15T10:44:38;3.90;99.90
41469;DHT22;27206;47.032;15.484;2023-02-15T10:52:46;4.00;99.90
41469;DHT22;27206;47.032;15.484;2023-02-15T11:06:08;4.20;99.90
41469;DHT22;27206;47.032;15.484;2023-02-15T11:08:45;4.20;99.90
41469;DHT22;27206;47.032;15.484;2023-02-15T11:11:31;4.30;99.90
41469;DHT22;27206;47.032;15.484;2023-02-15T11:14:05;4.30;99.90
41469;DHT22;27206;47.032;15.484;2023-02-15T11:16:38;4.40;99.90
41469;DHT22;27206;47.032;15.484;2023-02-15T11:19:26;4.60;99.90
41469;DHT22;27206;47.032;15.484;2023-02-15T11:21:58;4.50;99.90
41469;DHT22;27206;47.032;15.484;2023-02-15T11:24:28;4.50;99.90
41469;DHT22;27206;47.032;15.484;2023-02-15T11:27:03;4.60;99.90
41469;DHT22;27206;47.032;15.484;2023-02-15T11:29:53;4.60;99.90
41469;DHT22;27206;47.032;15.484;2023-02-15T11:32:37;4.80;99.90
41469;DHT22;27206;47.032;15.484;2023-02-15T11:37:40;4.90;99.90
41469;DHT22;27206;47.032;15.484;2023-02-15T11:40:39;5.20;99.90
41469;DHT22;27206;47.032;15.484;2023-02-15T11:46:00;5.10;99.90
41469;DHT22;27206;47.032;15.484;2023-02-15T11:48:25;5.10;99.90
41469;DHT22;27206;47.032;15.484;2023-02-15T11:50:52;5.00;99.90
41469;DHT22;27206;47.032;15.484;2023-02-15T11:53:20;5.10;99.90
41469;DHT22;27206;47.032;15.484;2023-02-15T11:55:48;5.00;99.90
41469;DHT22;27206;47.032;15.484;2023-02-15T12:01:11;5.70;99.90
41469;DHT22;27206;47.032;15.484;2023-02-15T12:04:38;6.10;99.90
41469;DHT22;27206;47.032;15.484;2023-02-15T12:06:54;6.60;99.90
41469;DHT22;27206;47.032;15.484;2023-02-15T12:12:31;7.20;99.90
41469;DHT22;27206;47.032;15.484;2023-02-15T12:14:59;7.50;99.90
41469;DHT22;27206;47.032;15.484;2023-02-15T12:17:33;7.50;99.90
41469;DHT22;27206;47.032;15.484;2023-02-15T12:20:20;7.90;99.90
41469;DHT22;27206;47.032;15.484;2023-02-15T12:25:40;8.30;99.90
41469;DHT22;27206;47.032;15.484;2023-02-15T12:31:45;9.30;99.90
41469;DHT22;27206;47.032;15.484;2023-02-15T12:34:32;9.30;99.90
41469;DHT22;27206;47.032;15.484;2023-02-15T12:37:29;8.70;99.90
41469;DHT22;27206;47.032;15.484;2023-02-15T12:39:56;9.30;99.90
41469;DHT22;27206;47.032;15.484;2023-02-15T12:42:23;9.00;99.90
41469;DHT22;27206;47.032;15.484;2023-02-15T12:44:59;9.20;99.90
41469;DHT22;27206;47.032;15.484;2023-02-15T12:47:25;9.60;99.90
41469;DHT22;27206;47.032;15.484;2023-02-15T12:50:22;9.00;99.90
41469;DHT22;27206;47.032;15.484;2023-02-15T12:52:51;9.20;99.90
41469;DHT22;27206;47.032;15.484;2023-02-15T12:55:26;9.50;99.90
41469;DHT22;27206;47.032;15.484;2023-02-15T13:00:40;9.80;99.90
41469;DHT22;27206;47.032;15.484;2023-02-15T13:03:16;9.30;99.90
41469;DHT22;27206;47.032;15.484;2023-02-15T13:05:44;9.40;99.90
41469;DHT22;27206;47.032;15.484;2023-02-15T13:13:28;10.00;99.90
41469;DHT22;27206;47.032;15.484;2023-02-15T13:16:15;10.10;99.90
41469;DHT22;27206;47.032;15.484;2023-02-15T13:18:45;10.10;99.90
41469;DHT22;27206;47.032;15.484;2023-02-15T13:21:37;10.00;99.90
41469;DHT22;27206;47.032;15.484;2023-02-15T13:26:43;10.00;99.90
41469;DHT22;27206;47.032;15.484;2023-02-15T13:29:30;10.00;99.90
41469;DHT22;27206;47.032;15.484;2023-02-15T13:31:58;10.40;99.90
41469;DHT22;27206;47.032;15.484;2023-02-15T13:34:33;10.60;99.90
41469;DHT22;27206;47.032;15.484;2023-02-15T13:37:21;10.90;99.90
41469;DHT22;27206;47.032;15.484;2023-02-15T13:40:22;10.70;99.90
41469;DHT22;27206;47.032;15.484;2023-02-15T13:45:33;10.60;99.90
41469;DHT22;27206;47.032;15.484;2023-02-15T13:51:25;10.40;99.90
41469;DHT22;27206;47.032;15.484;2023-02-15T14:02:33;9.70;99.90
41469;DHT22;27206;47.032;15.484;2023-02-15T14:13:55;9.60;99.90
41469;DHT22;27206;47.032;15.484;2023-02-15T14:19:54;10.10;99.90
41469;DHT22;27206;47.032;15.484;2023-02-15T14:25:23;10.30;99.90
41469;DHT22;27206;47.032;15.484;2023-02-15T14:30:21;9.70;99.90
41469;DHT22;27206;47.032;15.484;2023-02-15T14:32:52;9.70;99.90
41469;DHT22;27206;47.032;15.484;2023-02-15T14:35:21;9.80;99.90
41469;DHT22;27206;47.032;15.484;2023-02-15T14:40:35;9.70;99.90
41469;DHT22;27206;47.032;15.484;2023-02-15T14:46:20;10.70;99.90
41469;DHT22;27206;47.032;15.484;2023-02-15T14:48:53;10.30;99.90
41469;DHT22;27206;47.032;15.484;2023-02-15T15:04:40;9.90;99.90
41469;DHT22;27206;47.032;15.484;2023-02-15T15:07:22;9.70;99.90
41469;DHT22;27206;47.032;15.484;2023-02-15T15:10:06;9.60;99.90
41469;DHT22;27206;47.032;15.484;2023-02-15T15:12:42;9.60;99.90
41469;DHT22;27206;47.032;15.484;2023-02-15T15:15:15;9.60;99.90
41469;DHT22;27206;47.032;15.484;2023-02-15T15:18:06;9.40;99.90
41469;DHT22;27206;47.032;15.484;2023-02-15T15:20:42;9.10;99.90
41469;DHT22;27206;47.032;15.484;2023-02-15T15:50:25;8.20;99.90
41469;DHT22;27206;47.032;15.484;2023-02-15T15:52:57;8.20;99.90
41469;DHT22;27206;47.032;15.484;2023-02-15T15:55:25;8.00;99.90
41469;DHT22;27206;47.032;15.484;2023-02-15T15:57:58;7.70;99.90
41469;DHT22;27206;47.032;15.484;2023-02-15T16:03:24;6.80;99.90
41469;DHT22;27206;47.032;15.484;2023-02-15T16:05:50;6.50;99.90
41469;DHT22;27206;47.032;15.484;2023-02-15T16:10:55;6.00;99.90
41469;DHT22;27206;47.032;15.484;2023-02-15T16:13:21;5.70;99.90
41469;DHT22;27206;47.032;15.484;2023-02-15T16:15:51;5.60;99.90
41469;DHT22;27206;47.032;15.484;2023-02-15T16:18:20;5.40;99.90
41469;DHT22;27206;47.032;15.484;2023-02-15T16:21:01;5.30;99.90
41469;DHT22;27206;47.032;15.484;2023-02-15T16:24:09;5.10;99.90
41469;DHT22;27206;47.032;15.484;2023-02-15T16:29:32;4.90;99.90
41469;DHT22;27206;47.032;15.484;2023-02-15T16:32:06;4.90;99.90
41469;DHT22;27206;47.032;15.484;2023-02-15T16:34:32;4.80;99.90
41469;DHT22;27206;47.032;15.484;2023-02-15T16:37:18;4.60;99.90
41469;DHT22;27206;47.032;15.484;2023-02-15T16:39:45;4.50;99.90
41469;DHT22;27206;47.032;15.484;2023-02-15T16:42:15;4.20;99.90
41469;DHT22;27206;47.032;15.484;2023-02-15T16:44:41;4.00;99.90
41469;DHT22;27206;47.032;15.484;2023-02-15T16:47:16;4.00;99.90
41469;DHT22;27206;47.032;15.484;2023-02-15T16:49:46;4.00;99.90
41469;DHT22;27206;47.032;15.484;2023-02-15T16:52:18;4.00;99.90
41469;DHT22;27206;47.032;15.484;2023-02-15T16:54:45;3.90;99.90
41469;DHT22;27206;47.032;15.484;2023-02-15T16:57:22;3.80;99.90
41469;DHT22;27206;47.032;15.484;2023-02-15T16:59:50;3.70;99.90
41469;DHT22;27206;47.032;15.484;2023-02-15T17:02:24;3.60;99.90
41469;DHT22;27206;47.032;15.484;2023-02-15T17:05:17;3.40;99.90
41469;DHT22;27206;47.032;15.484;2023-02-15T17:10:37;3.10;99.90
41469;DHT22;27206;47.032;15.484;2023-02-15T17:13:15;3.00;99.90
41469;DHT22;27206;47.032;15.484;2023-02-15T17:18:29;2.70;99.90
41469;DHT22;27206;47.032;15.484;2023-02-15T17:20:58;2.70;99.90
41469;DHT22;27206;47.032;15.484;2023-02-15T17:26:10;2.60;99.90
41469;DHT22;27206;47.032;15.484;2023-02-15T17:28:37;2.60;99.90
41469;DHT22;27206;47.032;15.484;2023-02-15T17:31:06;2.50;99.90
41469;DHT22;27206;47.032;15.484;2023-02-15T17:36:18;2.40;99.90
41469;DHT22;27206;47.032;15.484;2023-02-15T17:39:20;2.40;99.90
41469;DHT22;27206;47.032;15.484;2023-02-15T17:41:47;2.30;99.90
41469;DHT22;27206;47.032;15.484;2023-02-15T17:44:13;2.30;99.90
41469;DHT22;27206;47.032;15.484;2023-02-15T17:46:41;2.20;99.90
41469;DHT22;27206;47.032;15.484;2023-02-15T17:49:19;2.20;99.90
41469;DHT22;27206;47.032;15.484;2023-02-15T17:51:47;2.10;99.90
41469;DHT22;27206;47.032;15.484;2023-02-15T17:54:13;2.10;99.90
41469;DHT22;27206;47.032;15.484;2023-02-15T17:56:57;2.00;99.90
41469;DHT22;27206;47.032;15.484;2023-02-15T17:59:29;2.10;99.90
41469;DHT22;27206;47.032;15.484;2023-02-15T18:01:55;2.00;99.90
41469;DHT22;27206;47.032;15.484;2023-02-15T18:04:39;1.90;99.90
41469;DHT22;27206;47.032;15.484;2023-02-15T18:07:24;1.90;99.90
41469;DHT22;27206;47.032;15.484;2023-02-15T18:10:16;1.90;99.90
41469;DHT22;27206;47.032;15.484;2023-02-15T18:13:00;1.80;99.90
41469;DHT22;27206;47.032;15.484;2023-02-15T18:15:26;1.70;99.90
41469;DHT22;27206;47.032;15.484;2023-02-15T18:17:52;1.70;99.90
41469;DHT22;27206;47.032;15.484;2023-02-15T18:20:34;1.70;99.90
41469;DHT22;27206;47.032;15.484;2023-02-15T18:23:01;1.60;99.90
41469;DHT22;27206;47.032;15.484;2023-02-15T18:25:27;1.70;99.90
41469;DHT22;27206;47.032;15.484;2023-02-15T18:27:52;1.70;99.90
41469;DHT22;27206;47.032;15.484;2023-02-15T18:30:20;1.60;99.90
41469;DHT22;27206;47.032;15.484;2023-02-15T18:32:49;1.60;99.90
41469;DHT22;27206;47.032;15.484;2023-02-15T18:35:18;1.50;99.90
41469;DHT22;27206;47.032;15.484;2023-02-15T18:37:44;1.40;99.90
41469;DHT22;27206;47.032;15.484;2023-02-15T18:40:18;1.30;99.90
41469;DHT22;27206;47.032;15.484;2023-02-15T18:42:45;1.20;99.90
41469;DHT22;27206;47.032;15.484;2023-02-15T18:45:22;0.90;99.90
41469;DHT22;27206;47.032;15.484;2023-02-15T18:47:49;0.90;99.90
41469;DHT22;27206;47.032;15.484;2023-02-15T18:50:17;1.10;1.00
41469;DHT22;27206;47.032;15.484;2023-02-15T18:52:45;1.20;1.00
41469;DHT22;27206;47.032;15.484;2023-02-15T18:55:22;1.10;99.90
41469;DHT22;27206;47.032;15.484;2023-02-15T18:57:52;1.10;99.90
41469;DHT22;27206;47.032;15.484;2023-02-15T19:00:21;1.00;99.90
41469;DHT22;27206;47.032;15.484;2023-02-15T19:02:50;1.00;1.00
41469;DHT22;27206;47.032;15.484;2023-02-15T19:05:18;1.20;1.00
41469;DHT22;27206;47.032;15.484;2023-02-15T19:07:44;1.10;1.00
41469;DHT22;27206;47.032;15.484;2023-02-15T19:10:15;1.20;1.00
41469;DHT22;27206;47.032;15.484;2023-02-15T19:12:42;0.90;1.00
41469;DHT22;27206;47.032;15.484;2023-02-15T19:15:20;0.90;1.00
41469;DHT22;27206;47.032;15.484;2023-02-15T19:17:45;0.70;1.00
41469;DHT22;27206;47.032;15.484;2023-02-15T19:20:20;0.60;1.00
41469;DHT22;27206;47.032;15.484;2023-02-15T19:22:47;0.60;1.00
41469;DHT22;27206;47.032;15.484;2023-02-15T19:25:19;0.40;1.00
41469;DHT22;27206;47.032;15.484;2023-02-15T19:27:45;0.50;1.00
41469;DHT22;27206;47.032;15.484;2023-02-15T19:32:47;0.50;1.00
41469;DHT22;27206;47.032;15.484;2023-02-15T19:35:21;0.20;1.00
41469;DHT22;27206;47.032;15.484;2023-02-15T19:37:49;0.20;1.00
41469;DHT22;27206;47.032;15.484;2023-02-15T19:40:22;0.30;1.00